sensor_id;sensor_type;location;lat;lon;timestamp;P1;durP1;ratioP1;P2;durP2;ratioP2
79468;SDS011;68936;52.526;13.326;2023-05-19T00:01:41;5.93;;;2.75;;
79468;SDS011;68936;52.526;13.326;2023-05-19T00:04:12;4.60;;;2.53;;
79468;SDS011;68936;52.526;13.326;2023-05-19T00:06:43;6.60;;;2.88;;
79468;SDS011;68936;52.526;13.326;2023-05-19T00:09:14;3.67;;;2.58;;
79468;SDS011;68936;52.526;13.326;2023-05-19T00:11:40;3.72;;;2.25;;
79468;SDS011;68936;52.526;13.326;2023-05-19T00:14:07;3.45;;;2.20;;
79468;SDS011;68936;52.526;13.326;2023-05-19T00:16:33;3.92;;;2.60;;
79468;SDS011;68936;52.526;13.326;2023-05-19T00:19:00;3.90;;;2.33;;
79468;SDS011;68936;52.526;13.326;2023-05-19T00:21:27;3.55;;;2.17;;
79468;SDS011;68936;52.526;13.326;2023-05-19T00:23:53;3.72;;;2.60;;
79468;SDS011;68936;52.526;13.326;2023-05-19T00:26:22;3.60;;;2.17;;
79468;SDS011;68936;52.526;13.326;2023-05-19T00:28:49;3.30;;;2.20;;
79468;SDS011;68936;52.526;13.326;2023-05-19T00:31:15;3.78;;;2.05;;
79468;SDS011;68936;52.526;13.326;2023-05-19T00:33:41;2.88;;;2.15;;
79468;SDS011;68936;52.526;13.326;2023-05-19T00:36:09;4.57;;;2.45;;
79468;SDS011;68936;52.526;13.326;2023-05-19T00:38:35;3.40;;;2.28;;
79468;SDS011;68936;52.526;13.326;2023-05-19T00:41:04;4.60;;;2.53;;
79468;SDS011;68936;52.526;13.326;2023-05-19T00:43:30;4.10;;;2.28;;
79468;SDS011;68936;52.526;13.326;2023-05-19T00:45:59;3.58;;;2.30;;
79468;SDS011;68936;52.526;13.326;2023-05-19T00:48:28;3.63;;;2.33;;
79468;SDS011;68936;52.526;13.326;2023-05-19T00:50:54;3.92;;;2.35;;
79468;SDS011;68936;52.526;13.326;2023-05-19T00:53:26;3.67;;;2.03;;
79468;SDS011;68936;52.526;13.326;2023-05-19T00:55:52;3.95;;;2.35;;
79468;SDS011;68936;52.526;13.326;2023-05-19T00:58:20;2.65;;;2.08;;
79468;SDS011;68936;52.526;13.326;2023-05-19T01:00:52;5.13;;;2.42;;
79468;SDS011;68936;52.526;13.326;2023-05-19T01:03:20;3.17;;;2.13;;
79468;SDS011;68936;52.526;13.326;2023-05-19T01:05:47;3.08;;;2.30;;
79468;SDS011;68936;52.526;13.326;2023-05-19T01:08:18;3.40;;;2.23;;
79468;SDS011;68936;52.526;13.326;2023-05-19T01:10:44;3.92;;;2.50;;
79468;SDS011;68936;52.526;13.326;2023-05-19T01:13:10;4.22;;;2.40;;
79468;SDS011;68936;52.526;13.326;2023-05-19T01:16:10;3.65;;;2.47;;
79468;SDS011;68936;52.526;13.326;2023-05-19T01:21:09;3.45;;;2.13;;
79468;SDS011;68936;52.526;13.326;2023-05-19T01:23:55;4.00;;;1.88;;
79468;SDS011;68936;52.526;13.326;2023-05-19T01:28:57;4.07;;;2.42;;
79468;SDS011;68936;52.526;13.326;2023-05-19T01:31:25;3.33;;;2.30;;
79468;SDS011;68936;52.526;13.326;2023-05-19T01:33:52;3.50;;;2.40;;
79468;SDS011;68936;52.526;13.326;2023-05-19T01:36:18;2.50;;;1.98;;
79468;SDS011;68936;52.526;13.326;2023-05-19T01:38:46;4.70;;;2.47;;
79468;SDS011;68936;52.526;13.326;2023-05-19T01:41:15;3.72;;;2.30;;
79468;SDS011;68936;52.526;13.326;2023-05-19T01:43:43;3.85;;;2.30;;
79468;SDS011;68936;52.526;13.326;2023-05-19T01:46:09;3.92;;;2.58;;
79468;SDS011;68936;52.526;13.326;2023-05-19T01:48:35;3.80;;;2.35;;
79468;SDS011;68936;52.526;13.326;2023-05-19T01:51:01;5.43;;;2.50;;
79468;SDS011;68936;52.526;13.326;2023-05-19T01:53:28;3.20;;;2.10;;
79468;SDS011;68936;52.526;13.326;2023-05-19T01:55:54;3.33;;;2.30;;
79468;SDS011;68936;52.526;13.326;2023-05-19T02:04:00;2.97;;;2.25;;
79468;SDS011;68936;52.526;13.326;2023-05-19T02:13:58;3.13;;;2.30;;
79468;SDS011;68936;52.526;13.326;2023-05-19T02:16:28;3.97;;;2.40;;
79468;SDS011;68936;52.526;13.326;2023-05-19T02:18:54;4.40;;;2.30;;
79468;SDS011;68936;52.526;13.326;2023-05-19T02:21:21;4.32;;;2.60;;
79468;SDS011;68936;52.526;13.326;2023-05-19T02:23:47;3.15;;;2.35;;
79468;SDS011;68936;52.526;13.326;2023-05-19T02:26:16;3.75;;;2.50;;
79468;SDS011;68936;52.526;13.326;2023-05-19T02:28:42;3.92;;;2.58;;
79468;SDS011;68936;52.526;13.326;2023-05-19T02:31:10;3.38;;;2.28;;
79468;SDS011;68936;52.526;13.326;2023-05-19T02:33:36;3.90;;;2.80;;
79468;SDS011;68936;52.526;13.326;2023-05-19T02:36:02;5.18;;;2.97;;
79468;SDS011;68936;52.526;13.326;2023-05-19T02:38:28;4.50;;;2.55;;
79468;SDS011;68936;52.526;13.326;2023-05-19T02:40:54;3.80;;;2.50;;
79468;SDS011;68936;52.526;13.326;2023-05-19T02:43:21;4.25;;;2.33;;
79468;SDS011;68936;52.526;13.326;2023-05-19T02:45:46;5.47;;;2.83;;
79468;SDS011;68936;52.526;13.326;2023-05-19T02:48:12;4.75;;;2.70;;
79468;SDS011;68936;52.526;13.326;2023-05-19T02:50:38;3.47;;;2.38;;
79468;SDS011;68936;52.526;13.326;2023-05-19T02:53:05;4.15;;;2.47;;
79468;SDS011;68936;52.526;13.326;2023-05-19T02:55:31;3.83;;;2.65;;
79468;SDS011;68936;52.526;13.326;2023-05-19T02:57:57;4.30;;;2.67;;
79468;SDS011;68936;52.526;13.326;2023-05-19T03:00:23;4.22;;;2.33;;
79468;SDS011;68936;52.526;13.326;2023-05-19T03:02:49;3.90;;;2.50;;
79468;SDS011;68936;52.526;13.326;2023-05-19T03:05:16;3.55;;;2.60;;
79468;SDS011;68936;52.526;13.326;2023-05-19T03:07:44;4.07;;;2.40;;
79468;SDS011;68936;52.526;13.326;2023-05-19T03:10:10;3.58;;;2.78;;
79468;SDS011;68936;52.526;13.326;2023-05-19T03:12:36;3.58;;;2.33;;
79468;SDS011;68936;52.526;13.326;2023-05-19T03:15:02;2.95;;;2.15;;
79468;SDS011;68936;52.526;13.326;2023-05-19T03:17:28;3.92;;;2.45;;
79468;SDS011;68936;52.526;13.326;2023-05-19T03:19:58;4.43;;;2.80;;
79468;SDS011;68936;52.526;13.326;2023-05-19T03:22:26;4.10;;;2.80;;
79468;SDS011;68936;52.526;13.326;2023-05-19T03:24:52;4.03;;;2.40;;
79468;SDS011;68936;52.526;13.326;2023-05-19T03:27:18;4.63;;;3.45;;
79468;SDS011;68936;52.526;13.326;2023-05-19T03:29:45;2.92;;;2.03;;
79468;SDS011;68936;52.526;13.326;2023-05-19T03:32:13;4.07;;;2.30;;
79468;SDS011;68936;52.526;13.326;2023-05-19T03:34:39;3.50;;;2.38;;
79468;SDS011;68936;52.526;13.326;2023-05-19T03:37:05;4.63;;;2.80;;
79468;SDS011;68936;52.526;13.326;2023-05-19T03:39:31;2.83;;;2.05;;
79468;SDS011;68936;52.526;13.326;2023-05-19T03:42:00;4.15;;;2.30;;
79468;SDS011;68936;52.526;13.326;2023-05-19T03:44:28;3.42;;;2.20;;
79468;SDS011;68936;52.526;13.326;2023-05-19T03:46:54;3.15;;;2.20;;
79468;SDS011;68936;52.526;13.326;2023-05-19T03:49:20;4.80;;;2.20;;
79468;SDS011;68936;52.526;13.326;2023-05-19T03:51:46;3.60;;;2.47;;
79468;SDS011;68936;52.526;13.326;2023-05-19T03:54:12;5.18;;;2.85;;
79468;SDS011;68936;52.526;13.326;2023-05-19T03:56:39;2.80;;;2.10;;
79468;SDS011;68936;52.526;13.326;2023-05-19T03:59:07;4.40;;;2.25;;
79468;SDS011;68936;52.526;13.326;2023-05-19T04:01:36;3.25;;;2.30;;
79468;SDS011;68936;52.526;13.326;2023-05-19T04:04:02;3.72;;;2.58;;
79468;SDS011;68936;52.526;13.326;2023-05-19T04:06:31;2.90;;;1.90;;
79468;SDS011;68936;52.526;13.326;2023-05-19T04:08:58;4.03;;;2.30;;
79468;SDS011;68936;52.526;13.326;2023-05-19T04:11:26;3.00;;;2.20;;
79468;SDS011;68936;52.526;13.326;2023-05-19T04:13:54;4.00;;;2.55;;
79468;SDS011;68936;52.526;13.326;2023-05-19T04:16:20;3.03;;;2.28;;
79468;SDS011;68936;52.526;13.326;2023-05-19T04:18:46;3.95;;;2.42;;
79468;SDS011;68936;52.526;13.326;2023-05-19T04:21:12;4.43;;;2.65;;
79468;SDS011;68936;52.526;13.326;2023-05-19T04:23:41;4.93;;;2.28;;
79468;SDS011;68936;52.526;13.326;2023-05-19T04:26:09;5.80;;;2.33;;
79468;SDS011;68936;52.526;13.326;2023-05-19T04:28:38;3.92;;;2.40;;
79468;SDS011;68936;52.526;13.326;2023-05-19T04:31:06;4.57;;;2.30;;
79468;SDS011;68936;52.526;13.326;2023-05-19T04:33:36;3.25;;;2.05;;
79468;SDS011;68936;52.526;13.326;2023-05-19T04:36:06;3.17;;;2.25;;
79468;SDS011;68936;52.526;13.326;2023-05-19T04:38:35;4.45;;;2.20;;
79468;SDS011;68936;52.526;13.326;2023-05-19T04:41:06;5.90;;;2.50;;
79468;SDS011;68936;52.526;13.326;2023-05-19T04:43:35;4.00;;;2.25;;
79468;SDS011;68936;52.526;13.326;2023-05-19T04:46:08;2.13;;;1.80;;
79468;SDS011;68936;52.526;13.326;2023-05-19T04:48:34;4.70;;;2.63;;
79468;SDS011;68936;52.526;13.326;2023-05-19T04:51:01;3.42;;;2.33;;
79468;SDS011;68936;52.526;13.326;2023-05-19T04:53:27;2.72;;;2.10;;
79468;SDS011;68936;52.526;13.326;2023-05-19T04:55:54;4.10;;;2.55;;
79468;SDS011;68936;52.526;13.326;2023-05-19T04:58:28;4.35;;;2.10;;
79468;SDS011;68936;52.526;13.326;2023-05-19T05:00:54;3.05;;;2.08;;
79468;SDS011;68936;52.526;13.326;2023-05-19T05:03:21;3.95;;;2.20;;
79468;SDS011;68936;52.526;13.326;2023-05-19T05:05:47;4.20;;;2.20;;
79468;SDS011;68936;52.526;13.326;2023-05-19T05:08:13;3.88;;;2.25;;
79468;SDS011;68936;52.526;13.326;2023-05-19T05:10:45;3.95;;;1.80;;
79468;SDS011;68936;52.526;13.326;2023-05-19T05:13:14;3.97;;;2.30;;
79468;SDS011;68936;52.526;13.326;2023-05-19T05:15:40;4.13;;;2.00;;
79468;SDS011;68936;52.526;13.326;2023-05-19T05:18:09;2.67;;;1.92;;
79468;SDS011;68936;52.526;13.326;2023-05-19T05:20:38;3.80;;;2.40;;
79468;SDS011;68936;52.526;13.326;2023-05-19T05:23:04;3.42;;;1.90;;
79468;SDS011;68936;52.526;13.326;2023-05-19T05:25:33;2.88;;;2.10;;
79468;SDS011;68936;52.526;13.326;2023-05-19T05:27:59;2.88;;;2.00;;
79468;SDS011;68936;52.526;13.326;2023-05-19T05:30:29;3.25;;;2.00;;
79468;SDS011;68936;52.526;13.326;2023-05-19T05:32:55;2.67;;;2.00;;
79468;SDS011;68936;52.526;13.326;2023-05-19T05:35:21;3.50;;;1.85;;
79468;SDS011;68936;52.526;13.326;2023-05-19T05:37:48;4.20;;;2.05;;
79468;SDS011;68936;52.526;13.326;2023-05-19T05:40:14;4.05;;;1.80;;
79468;SDS011;68936;52.526;13.326;2023-05-19T05:42:43;2.90;;;1.67;;
79468;SDS011;68936;52.526;13.326;2023-05-19T05:45:11;2.95;;;1.85;;
79468;SDS011;68936;52.526;13.326;2023-05-19T05:47:37;3.10;;;1.95;;
79468;SDS011;68936;52.526;13.326;2023-05-19T05:50:05;3.78;;;2.22;;
79468;SDS011;68936;52.526;13.326;2023-05-19T05:52:36;4.50;;;2.55;;
79468;SDS011;68936;52.526;13.326;2023-05-19T05:55:03;2.72;;;1.92;;
79468;SDS011;68936;52.526;13.326;2023-05-19T05:57:31;3.30;;;1.85;;
79468;SDS011;68936;52.526;13.326;2023-05-19T05:59:59;3.15;;;1.92;;
79468;SDS011;68936;52.526;13.326;2023-05-19T06:02:25;4.22;;;2.20;;
79468;SDS011;68936;52.526;13.326;2023-05-19T06:04:52;2.75;;;1.70;;
79468;SDS011;68936;52.526;13.326;2023-05-19T06:07:20;3.67;;;2.13;;
79468;SDS011;68936;52.526;13.326;2023-05-19T06:09:46;4.80;;;2.03;;
79468;SDS011;68936;52.526;13.326;2023-05-19T06:12:12;4.50;;;1.90;;
79468;SDS011;68936;52.526;13.326;2023-05-19T06:14:38;3.80;;;2.08;;
79468;SDS011;68936;52.526;13.326;2023-05-19T06:17:04;3.85;;;2.05;;
79468;SDS011;68936;52.526;13.326;2023-05-19T06:19:32;2.50;;;1.70;;
79468;SDS011;68936;52.526;13.326;2023-05-19T06:21:58;4.00;;;1.83;;
79468;SDS011;68936;52.526;13.326;2023-05-19T06:24:24;3.75;;;2.05;;
79468;SDS011;68936;52.526;13.326;2023-05-19T06:26:50;1.83;;;1.55;;
79468;SDS011;68936;52.526;13.326;2023-05-19T06:29:16;3.17;;;2.08;;
79468;SDS011;68936;52.526;13.326;2023-05-19T06:31:42;3.15;;;2.35;;
79468;SDS011;68936;52.526;13.326;2023-05-19T06:34:11;2.65;;;1.83;;
79468;SDS011;68936;52.526;13.326;2023-05-19T06:36:40;3.33;;;1.75;;
79468;SDS011;68936;52.526;13.326;2023-05-19T06:39:06;3.22;;;2.03;;
79468;SDS011;68936;52.526;13.326;2023-05-19T06:41:32;6.15;;;2.10;;
79468;SDS011;68936;52.526;13.326;2023-05-19T06:43:58;3.40;;;2.05;;
79468;SDS011;68936;52.526;13.326;2023-05-19T06:46:24;3.90;;;1.75;;
79468;SDS011;68936;52.526;13.326;2023-05-19T06:48:53;4.63;;;1.88;;
79468;SDS011;68936;52.526;13.326;2023-05-19T06:51:19;2.40;;;1.50;;
79468;SDS011;68936;52.526;13.326;2023-05-19T06:53:47;8.07;;;2.20;;
79468;SDS011;68936;52.526;13.326;2023-05-19T06:56:13;3.83;;;1.92;;
79468;SDS011;68936;52.526;13.326;2023-05-19T06:58:40;3.70;;;2.10;;
79468;SDS011;68936;52.526;13.326;2023-05-19T07:01:08;3.05;;;1.90;;
79468;SDS011;68936;52.526;13.326;2023-05-19T07:03:34;2.97;;;1.70;;
79468;SDS011;68936;52.526;13.326;2023-05-19T07:06:01;2.85;;;1.95;;
79468;SDS011;68936;52.526;13.326;2023-05-19T07:08:27;12.65;;;2.53;;
79468;SDS011;68936;52.526;13.326;2023-05-19T07:10:55;2.13;;;1.60;;
79468;SDS011;68936;52.526;13.326;2023-05-19T07:13:21;3.45;;;2.10;;
79468;SDS011;68936;52.526;13.326;2023-05-19T07:15:50;9.02;;;2.30;;
79468;SDS011;68936;52.526;13.326;2023-05-19T07:18:22;2.53;;;2.00;;
79468;SDS011;68936;52.526;13.326;2023-05-19T07:20:53;3.33;;;1.80;;
79468;SDS011;68936;52.526;13.326;2023-05-19T07:23:19;3.13;;;1.95;;
79468;SDS011;68936;52.526;13.326;2023-05-19T07:25:45;4.00;;;2.00;;
79468;SDS011;68936;52.526;13.326;2023-05-19T07:28:11;3.65;;;2.10;;
79468;SDS011;68936;52.526;13.326;2023-05-19T07:30:37;3.13;;;1.83;;
79468;SDS011;68936;52.526;13.326;2023-05-19T07:33:03;2.40;;;1.67;;
79468;SDS011;68936;52.526;13.326;2023-05-19T07:35:30;3.75;;;2.10;;
79468;SDS011;68936;52.526;13.326;2023-05-19T07:37:59;2.92;;;1.83;;
79468;SDS011;68936;52.526;13.326;2023-05-19T07:40:28;4.25;;;1.83;;
79468;SDS011;68936;52.526;13.326;2023-05-19T07:42:54;4.20;;;2.10;;
79468;SDS011;68936;52.526;13.326;2023-05-19T07:45:22;2.60;;;1.80;;
79468;SDS011;68936;52.526;13.326;2023-05-19T07:47:48;3.13;;;1.70;;
79468;SDS011;68936;52.526;13.326;2023-05-19T07:50:14;3.60;;;1.95;;
79468;SDS011;68936;52.526;13.326;2023-05-19T07:52:40;2.78;;;1.85;;
79468;SDS011;68936;52.526;13.326;2023-05-19T07:55:06;2.60;;;1.63;;
79468;SDS011;68936;52.526;13.326;2023-05-19T07:57:32;2.90;;;1.80;;
79468;SDS011;68936;52.526;13.326;2023-05-19T08:00:00;2.75;;;1.80;;
79468;SDS011;68936;52.526;13.326;2023-05-19T08:02:31;3.03;;;1.85;;
79468;SDS011;68936;52.526;13.326;2023-05-19T08:04:57;3.17;;;1.85;;
79468;SDS011;68936;52.526;13.326;2023-05-19T08:07:23;4.28;;;2.08;;
79468;SDS011;68936;52.526;13.326;2023-05-19T08:09:49;3.47;;;1.75;;
79468;SDS011;68936;52.526;13.326;2023-05-19T08:12:15;4.18;;;2.20;;
79468;SDS011;68936;52.526;13.326;2023-05-19T08:14:41;2.65;;;1.83;;
79468;SDS011;68936;52.526;13.326;2023-05-19T08:17:09;3.03;;;1.92;;
79468;SDS011;68936;52.526;13.326;2023-05-19T08:19:35;2.88;;;1.85;;
79468;SDS011;68936;52.526;13.326;2023-05-19T08:22:01;4.47;;;2.13;;
79468;SDS011;68936;52.526;13.326;2023-05-19T08:24:30;3.38;;;1.67;;
79468;SDS011;68936;52.526;13.326;2023-05-19T08:27:00;2.78;;;1.75;;
79468;SDS011;68936;52.526;13.326;2023-05-19T08:29:26;3.90;;;2.20;;
79468;SDS011;68936;52.526;13.326;2023-05-19T08:31:52;3.15;;;2.30;;
79468;SDS011;68936;52.526;13.326;2023-05-19T08:34:18;2.90;;;1.75;;
79468;SDS011;68936;52.526;13.326;2023-05-19T08:36:44;2.85;;;1.90;;
79468;SDS011;68936;52.526;13.326;2023-05-19T08:39:11;5.07;;;1.65;;
79468;SDS011;68936;52.526;13.326;2023-05-19T08:41:40;4.80;;;1.77;;
79468;SDS011;68936;52.526;13.326;2023-05-19T08:44:08;3.50;;;1.80;;
79468;SDS011;68936;52.526;13.326;2023-05-19T08:46:34;4.80;;;1.90;;
79468;SDS011;68936;52.526;13.326;2023-05-19T08:49:02;2.38;;;1.60;;
79468;SDS011;68936;52.526;13.326;2023-05-19T08:54:14;3.92;;;1.80;;
79468;SDS011;68936;52.526;13.326;2023-05-19T08:56:42;5.45;;;1.95;;
79468;SDS011;68936;52.526;13.326;2023-05-19T08:59:09;4.93;;;1.98;;
79468;SDS011;68936;52.526;13.326;2023-05-19T09:01:38;4.55;;;2.00;;
79468;SDS011;68936;52.526;13.326;2023-05-19T09:04:04;3.60;;;2.00;;
79468;SDS011;68936;52.526;13.326;2023-05-19T09:06:30;3.80;;;2.00;;
79468;SDS011;68936;52.526;13.326;2023-05-19T09:08:56;5.90;;;1.90;;
79468;SDS011;68936;52.526;13.326;2023-05-19T09:11:25;6.07;;;2.08;;
79468;SDS011;68936;52.526;13.326;2023-05-19T09:13:51;3.92;;;1.90;;
79468;SDS011;68936;52.526;13.326;2023-05-19T09:16:18;9.00;;;2.25;;
79468;SDS011;68936;52.526;13.326;2023-05-19T09:18:56;6.15;;;1.95;;
79468;SDS011;68936;52.526;13.326;2023-05-19T09:21:26;4.55;;;2.08;;
79468;SDS011;68936;52.526;13.326;2023-05-19T09:26:23;4.82;;;2.03;;
79468;SDS011;68936;52.526;13.326;2023-05-19T09:28:49;7.35;;;2.00;;
79468;SDS011;68936;52.526;13.326;2023-05-19T09:31:15;5.47;;;1.90;;
79468;SDS011;68936;52.526;13.326;2023-05-19T09:33:41;8.20;;;2.05;;
79468;SDS011;68936;52.526;13.326;2023-05-19T09:36:08;2.58;;;1.65;;
79468;SDS011;68936;52.526;13.326;2023-05-19T09:38:35;9.27;;;2.40;;
79468;SDS011;68936;52.526;13.326;2023-05-19T09:41:04;6.18;;;2.25;;
79468;SDS011;68936;52.526;13.326;2023-05-19T09:43:31;10.60;;;2.10;;
79468;SDS011;68936;52.526;13.326;2023-05-19T09:46:04;7.88;;;2.30;;
79468;SDS011;68936;52.526;13.326;2023-05-19T09:48:32;5.13;;;2.60;;
79468;SDS011;68936;52.526;13.326;2023-05-19T09:51:01;12.52;;;3.58;;
79468;SDS011;68936;52.526;13.326;2023-05-19T09:53:29;22.23;;;5.07;;
79468;SDS011;68936;52.526;13.326;2023-05-19T09:55:59;24.08;;;4.97;;
79468;SDS011;68936;52.526;13.326;2023-05-19T09:58:29;17.15;;;5.38;;
79468;SDS011;68936;52.526;13.326;2023-05-19T10:00:55;15.85;;;4.22;;
79468;SDS011;68936;52.526;13.326;2023-05-19T10:03:28;17.50;;;4.45;;
79468;SDS011;68936;52.526;13.326;2023-05-19T10:05:56;18.27;;;4.05;;
79468;SDS011;68936;52.526;13.326;2023-05-19T10:08:24;22.27;;;5.10;;
79468;SDS011;68936;52.526;13.326;2023-05-19T10:10:51;18.90;;;4.57;;
79468;SDS011;68936;52.526;13.326;2023-05-19T10:13:17;21.80;;;4.75;;
79468;SDS011;68936;52.526;13.326;2023-05-19T10:15:46;18.27;;;4.53;;
79468;SDS011;68936;52.526;13.326;2023-05-19T10:18:16;13.98;;;4.20;;
79468;SDS011;68936;52.526;13.326;2023-05-19T10:20:45;11.95;;;3.72;;
79468;SDS011;68936;52.526;13.326;2023-05-19T10:23:11;14.63;;;4.63;;
79468;SDS011;68936;52.526;13.326;2023-05-19T10:25:37;14.25;;;4.47;;
79468;SDS011;68936;52.526;13.326;2023-05-19T10:28:07;16.90;;;4.28;;
79468;SDS011;68936;52.526;13.326;2023-05-19T10:30:38;15.93;;;3.92;;
79468;SDS011;68936;52.526;13.326;2023-05-19T10:33:05;12.07;;;4.40;;
79468;SDS011;68936;52.526;13.326;2023-05-19T10:40:55;15.23;;;4.60;;
79468;SDS011;68936;52.526;13.326;2023-05-19T10:46:09;10.77;;;4.20;;
79468;SDS011;68936;52.526;13.326;2023-05-19T10:48:38;11.32;;;4.15;;
79468;SDS011;68936;52.526;13.326;2023-05-19T10:51:09;11.98;;;4.15;;
79468;SDS011;68936;52.526;13.326;2023-05-19T10:53:39;9.05;;;3.40;;
79468;SDS011;68936;52.526;13.326;2023-05-19T10:56:05;16.20;;;3.80;;
79468;SDS011;68936;52.526;13.326;2023-05-19T10:58:38;14.55;;;4.03;;
79468;SDS011;68936;52.526;13.326;2023-05-19T11:01:08;12.25;;;3.83;;
79468;SDS011;68936;52.526;13.326;2023-05-19T11:03:49;8.88;;;3.83;;
79468;SDS011;68936;52.526;13.326;2023-05-19T11:06:20;12.88;;;3.92;;
79468;SDS011;68936;52.526;13.326;2023-05-19T11:08:50;12.43;;;3.67;;
79468;SDS011;68936;52.526;13.326;2023-05-19T11:11:22;8.07;;;3.40;;
79468;SDS011;68936;52.526;13.326;2023-05-19T11:13:52;9.50;;;3.50;;
79468;SDS011;68936;52.526;13.326;2023-05-19T11:16:28;12.32;;;3.90;;
79468;SDS011;68936;52.526;13.326;2023-05-19T11:18:58;9.27;;;3.20;;
79468;SDS011;68936;52.526;13.326;2023-05-19T11:21:39;7.50;;;3.50;;
79468;SDS011;68936;52.526;13.326;2023-05-19T11:24:08;10.38;;;4.05;;
79468;SDS011;68936;52.526;13.326;2023-05-19T11:26:41;10.82;;;3.90;;
79468;SDS011;68936;52.526;13.326;2023-05-19T11:29:07;10.52;;;3.75;;
79468;SDS011;68936;52.526;13.326;2023-05-19T11:31:34;8.88;;;4.15;;
79468;SDS011;68936;52.526;13.326;2023-05-19T11:34:03;10.05;;;3.92;;
79468;SDS011;68936;52.526;13.326;2023-05-19T11:36:34;9.13;;;3.72;;
79468;SDS011;68936;52.526;13.326;2023-05-19T11:39:00;13.18;;;3.63;;
79468;SDS011;68936;52.526;13.326;2023-05-19T11:41:27;9.25;;;3.70;;
79468;SDS011;68936;52.526;13.326;2023-05-19T11:43:54;9.85;;;3.38;;
79468;SDS011;68936;52.526;13.326;2023-05-19T11:46:21;10.07;;;4.03;;
79468;SDS011;68936;52.526;13.326;2023-05-19T11:48:47;6.88;;;2.88;;
79468;SDS011;68936;52.526;13.326;2023-05-19T11:51:14;5.38;;;1.83;;
79468;SDS011;68936;52.526;13.326;2023-05-19T11:53:43;5.28;;;1.83;;
79468;SDS011;68936;52.526;13.326;2023-05-19T11:56:11;6.53;;;2.35;;
79468;SDS011;68936;52.526;13.326;2023-05-19T11:58:39;12.05;;;2.95;;
79468;SDS011;68936;52.526;13.326;2023-05-19T12:01:07;18.05;;;5.05;;
79468;SDS011;68936;52.526;13.326;2023-05-19T12:03:34;22.50;;;5.30;;
79468;SDS011;68936;52.526;13.326;2023-05-19T12:06:00;17.50;;;6.38;;
79468;SDS011;68936;52.526;13.326;2023-05-19T12:08:28;22.02;;;11.45;;
79468;SDS011;68936;52.526;13.326;2023-05-19T12:10:54;40.92;;;22.50;;
79468;SDS011;68936;52.526;13.326;2023-05-19T12:13:21;55.38;;;29.88;;
79468;SDS011;68936;52.526;13.326;2023-05-19T12:15:49;60.83;;;33.88;;
79468;SDS011;68936;52.526;13.326;2023-05-19T12:18:16;62.83;;;33.75;;
79468;SDS011;68936;52.526;13.326;2023-05-19T12:20:42;49.88;;;25.85;;
79468;SDS011;68936;52.526;13.326;2023-05-19T12:23:08;46.75;;;23.08;;
79468;SDS011;68936;52.526;13.326;2023-05-19T12:25:34;36.67;;;20.27;;
79468;SDS011;68936;52.526;13.326;2023-05-19T12:28:00;34.67;;;15.25;;
79468;SDS011;68936;52.526;13.326;2023-05-19T12:30:29;20.42;;;11.45;;
79468;SDS011;68936;52.526;13.326;2023-05-19T12:32:55;15.15;;;8.35;;
79468;SDS011;68936;52.526;13.326;2023-05-19T12:35:31;15.43;;;8.40;;
79468;SDS011;68936;52.526;13.326;2023-05-19T12:38:01;9.07;;;4.88;;
79468;SDS011;68936;52.526;13.326;2023-05-19T12:40:28;8.68;;;5.15;;
79468;SDS011;68936;52.526;13.326;2023-05-19T12:42:59;9.68;;;4.88;;
79468;SDS011;68936;52.526;13.326;2023-05-19T12:45:25;8.07;;;4.28;;
79468;SDS011;68936;52.526;13.326;2023-05-19T12:47:52;9.73;;;4.05;;
79468;SDS011;68936;52.526;13.326;2023-05-19T12:50:21;12.10;;;4.00;;
79468;SDS011;68936;52.526;13.326;2023-05-19T12:52:54;7.65;;;3.35;;
79468;SDS011;68936;52.526;13.326;2023-05-19T12:55:20;6.57;;;3.83;;
79468;SDS011;68936;52.526;13.326;2023-05-19T12:57:49;13.60;;;3.97;;
79468;SDS011;68936;52.526;13.326;2023-05-19T13:00:17;9.43;;;4.20;;
79468;SDS011;68936;52.526;13.326;2023-05-19T13:02:59;10.15;;;4.80;;
79468;SDS011;68936;52.526;13.326;2023-05-19T13:05:29;8.23;;;3.90;;
79468;SDS011;68936;52.526;13.326;2023-05-19T13:10:24;6.45;;;2.70;;
79468;SDS011;68936;52.526;13.326;2023-05-19T13:12:52;9.18;;;3.47;;
79468;SDS011;68936;52.526;13.326;2023-05-19T13:15:18;8.15;;;3.33;;
79468;SDS011;68936;52.526;13.326;2023-05-19T13:17:46;6.72;;;2.88;;
79468;SDS011;68936;52.526;13.326;2023-05-19T13:20:13;7.55;;;4.07;;
79468;SDS011;68936;52.526;13.326;2023-05-19T13:22:41;11.70;;;5.20;;
79468;SDS011;68936;52.526;13.326;2023-05-19T13:25:07;14.23;;;6.10;;
79468;SDS011;68936;52.526;13.326;2023-05-19T13:27:34;8.93;;;4.80;;
79468;SDS011;68936;52.526;13.326;2023-05-19T13:30:00;7.55;;;3.70;;
79468;SDS011;68936;52.526;13.326;2023-05-19T13:32:26;9.60;;;3.83;;
79468;SDS011;68936;52.526;13.326;2023-05-19T13:34:52;7.60;;;4.45;;
79468;SDS011;68936;52.526;13.326;2023-05-19T13:37:18;6.88;;;4.35;;
79468;SDS011;68936;52.526;13.326;2023-05-19T13:39:44;6.15;;;3.97;;
79468;SDS011;68936;52.526;13.326;2023-05-19T13:42:10;7.95;;;4.00;;
79468;SDS011;68936;52.526;13.326;2023-05-19T13:44:36;8.23;;;3.25;;
79468;SDS011;68936;52.526;13.326;2023-05-19T13:47:02;5.85;;;2.65;;
79468;SDS011;68936;52.526;13.326;2023-05-19T13:49:28;5.47;;;3.25;;
79468;SDS011;68936;52.526;13.326;2023-05-19T13:51:55;8.23;;;3.90;;
79468;SDS011;68936;52.526;13.326;2023-05-19T13:54:24;6.03;;;3.42;;
79468;SDS011;68936;52.526;13.326;2023-05-19T13:56:52;8.40;;;5.05;;
79468;SDS011;68936;52.526;13.326;2023-05-19T13:59:18;9.60;;;6.50;;
79468;SDS011;68936;52.526;13.326;2023-05-19T14:01:47;11.35;;;5.40;;
79468;SDS011;68936;52.526;13.326;2023-05-19T14:04:14;6.18;;;4.32;;
79468;SDS011;68936;52.526;13.326;2023-05-19T14:06:40;6.80;;;3.58;;
79468;SDS011;68936;52.526;13.326;2023-05-19T14:09:09;5.85;;;2.75;;
79468;SDS011;68936;52.526;13.326;2023-05-19T14:11:35;3.53;;;2.10;;
79468;SDS011;68936;52.526;13.326;2023-05-19T14:14:01;6.90;;;2.20;;
79468;SDS011;68936;52.526;13.326;2023-05-19T14:16:28;4.15;;;2.95;;
79468;SDS011;68936;52.526;13.326;2023-05-19T14:18:54;10.13;;;2.60;;
79468;SDS011;68936;52.526;13.326;2023-05-19T14:21:23;4.25;;;2.42;;
79468;SDS011;68936;52.526;13.326;2023-05-19T14:23:49;4.57;;;1.90;;
79468;SDS011;68936;52.526;13.326;2023-05-19T14:26:15;3.95;;;1.90;;
79468;SDS011;68936;52.526;13.326;2023-05-19T14:28:42;4.22;;;2.28;;
79468;SDS011;68936;52.526;13.326;2023-05-19T14:31:11;3.30;;;1.75;;
79468;SDS011;68936;52.526;13.326;2023-05-19T14:33:37;5.53;;;2.08;;
79468;SDS011;68936;52.526;13.326;2023-05-19T14:36:04;5.75;;;2.70;;
79468;SDS011;68936;52.526;13.326;2023-05-19T14:38:30;9.15;;;3.95;;
79468;SDS011;68936;52.526;13.326;2023-05-19T14:40:56;7.82;;;5.32;;
79468;SDS011;68936;52.526;13.326;2023-05-19T14:43:22;7.57;;;4.72;;
79468;SDS011;68936;52.526;13.326;2023-05-19T14:45:51;6.85;;;4.25;;
79468;SDS011;68936;52.526;13.326;2023-05-19T14:48:19;6.57;;;2.95;;
79468;SDS011;68936;52.526;13.326;2023-05-19T14:50:47;5.90;;;3.03;;
79468;SDS011;68936;52.526;13.326;2023-05-19T14:53:16;5.07;;;2.28;;
79468;SDS011;68936;52.526;13.326;2023-05-19T14:55:42;3.60;;;2.17;;
79468;SDS011;68936;52.526;13.326;2023-05-19T14:58:08;4.90;;;2.17;;
79468;SDS011;68936;52.526;13.326;2023-05-19T15:00:34;5.68;;;2.53;;
79468;SDS011;68936;52.526;13.326;2023-05-19T15:03:00;3.08;;;2.08;;
79468;SDS011;68936;52.526;13.326;2023-05-19T15:05:29;2.50;;;1.67;;
79468;SDS011;68936;52.526;13.326;2023-05-19T15:07:55;4.45;;;2.00;;